createdAt,value
2023-09-01T00:01:01.263Z,99835.41
2023-09-01T00:03:28.189Z,99832.41
2023-09-01T00:05:54.824Z,99831.88
2023-09-01T00:08:21.686Z,99834.88
2023-09-01T00:10:48.289Z,99839.75
2023-09-01T00:13:14.817Z,99841.38
2023-09-01T00:15:41.324Z,99832.94
2023-09-01T00:18:08.204Z,99837.59
2023-09-01T00:20:36.016Z,99842.75
2023-09-01T00:23:04.895Z,99838.38
2023-09-01T00:25:31.943Z,99840.84
2023-09-01T00:27:58.502Z,99843.81
2023-09-01T00:30:28.264Z,99844.09
2023-09-01T00:32:54.765Z,99845.69
2023-09-01T00:35:21.354Z,99841.34
2023-09-01T00:37:47.893Z,99844.53
2023-09-01T00:40:14.375Z,99845.59
2023-09-01T00:42:40.854Z,99853.47
2023-09-01T00:45:08.154Z,99851.88
2023-09-01T00:47:34.683Z,99852.63
2023-09-01T00:50:08.657Z,99854.22
2023-09-01T00:52:36.593Z,99850.41
2023-09-01T00:55:03.907Z,99859.13
2023-09-01T00:57:30.368Z,99850.69
2023-09-01T00:59:58.163Z,99842.69
2023-09-01T01:02:26.226Z,99847.31
2023-09-01T01:04:54.911Z,99845.44
2023-09-01T01:07:44.753Z,99848.41
2023-09-01T01:10:29.185Z,99853.03
2023-09-01T01:13:23.206Z,99856.59
2023-09-01T01:15:54.639Z,99855.44
2023-09-01T01:18:24.300Z,99853.56
2023-09-01T01:20:55.904Z,99852.75
2023-09-01T01:23:23.097Z,99852.75
2023-09-01T01:25:53.854Z,99841.88
2023-09-01T01:28:21.409Z,99849.41
2023-09-01T01:30:49.248Z,99843.75
2023-09-01T01:33:21.539Z,99852.22
2023-09-01T01:36:06.955Z,99844.59
2023-09-01T01:38:39.200Z,99843.03
2023-09-01T01:41:10.932Z,99843.06
2023-09-01T01:43:40.327Z,99836.25
2023-09-01T01:46:07.286Z,99835.94
2023-09-01T01:48:40.941Z,99850.09
2023-09-01T01:51:07.650Z,99848.19
2023-09-01T01:53:38.014Z,99857.19
2023-09-01T01:56:05.167Z,99861.94
2023-09-01T01:58:32.086Z,99856.50
2023-09-01T02:00:59.093Z,99860.19
2023-09-01T02:03:25.574Z,99864.28
2023-09-01T02:05:54.033Z,99865.66
2023-09-01T02:08:21.765Z,99874.25
2023-09-01T02:10:49.560Z,99885.06
2023-09-01T02:13:16.083Z,99889.53
2023-09-01T02:15:51.791Z,99894.31
2023-09-01T02:18:18.459Z,99895.06
2023-09-01T02:20:45.040Z,99887.25
2023-09-01T02:23:15.518Z,99884.88
2023-09-01T02:25:42.022Z,99891.63
2023-09-01T02:28:08.551Z,99885.63
2023-09-01T02:30:35.070Z,99888.94
2023-09-01T02:33:02.713Z,99889.91
2023-09-01T02:35:29.299Z,99893.81
2023-09-01T02:37:55.884Z,99890.00
2023-09-01T02:40:25.322Z,99889.69
2023-09-01T02:42:55.406Z,99888.44
2023-09-01T02:45:23.195Z,99890.97
2023-09-01T02:47:49.879Z,99889.38
2023-09-01T02:50:16.654Z,99897.09
2023-09-01T02:52:43.198Z,99887.13
2023-09-01T02:55:10.981Z,99877.66
2023-09-01T02:57:37.626Z,99892.38
2023-09-01T03:00:15.829Z,99877.75
2023-09-01T03:02:43.978Z,99884.06
2023-09-01T03:05:11.372Z,99877.63
2023-09-01T03:07:41.898Z,99879.97
2023-09-01T03:10:09.488Z,99883.28
2023-09-01T03:12:40.126Z,99879.63
2023-09-01T03:15:08.455Z,99880.88
2023-09-01T03:17:35.076Z,99886.31
2023-09-01T03:20:02.164Z,99889.03
2023-09-01T03:22:28.643Z,99887.69
2023-09-01T03:24:55.224Z,99891.81
2023-09-01T03:27:22.357Z,99893.00
2023-09-01T03:29:54.015Z,99895.00
2023-09-01T03:32:20.561Z,99891.38
2023-09-01T03:34:47.171Z,99893.06
2023-09-01T03:37:13.855Z,99894.72
2023-09-01T03:39:40.550Z,99897.94
2023-09-01T03:42:07.092Z,99896.75
2023-09-01T03:44:33.530Z,99896.59
2023-09-01T03:47:00.164Z,99899.13
2023-09-01T03:49:27.785Z,99900.31
2023-09-01T03:51:54.434Z,99898.84
2023-09-01T03:54:20.958Z,99905.25
2023-09-01T03:56:47.430Z,99910.25
2023-09-01T03:59:14.018Z,99922.00
2023-09-01T04:01:40.547Z,99915.50
2023-09-01T04:04:07.726Z,99911.34
2023-09-01T04:06:34.285Z,99905.72
2023-09-01T04:09:00.767Z,99905.09
2023-09-01T04:11:27.315Z,99906.41
2023-09-01T04:13:56.800Z,99907.19
2023-09-01T04:16:23.828Z,99916.09
2023-09-01T04:18:50.392Z,99913.59
2023-09-01T04:21:17.348Z,99902.41
2023-09-01T04:23:44.286Z,99912.25
2023-09-01T04:26:10.823Z,99906.19
2023-09-01T04:28:37.296Z,99922.19
2023-09-01T04:31:04.863Z,99917.44
2023-09-01T04:33:32.458Z,99911.34
2023-09-01T04:36:05.305Z,99901.06
2023-09-01T04:38:32.488Z,99912.03
2023-09-01T04:41:00.908Z,99914.56
2023-09-01T04:43:30.633Z,99908.53
2023-09-01T04:45:58.962Z,99911.13
2023-09-01T04:48:26.335Z,99902.19
2023-09-01T04:50:52.983Z,99906.69
2023-09-01T04:53:19.743Z,99900.50
2023-09-01T04:55:46.220Z,99901.88
2023-09-01T04:58:12.939Z,99902.53
2023-09-01T05:00:40.237Z,99902.66
2023-09-01T05:03:06.818Z,99903.22
2023-09-01T05:05:33.334Z,99906.22
2023-09-01T05:07:59.941Z,99905.53
2023-09-01T05:10:27.118Z,99915.03
2023-09-01T05:12:53.641Z,99923.94
2023-09-01T05:15:20.780Z,99918.66
2023-09-01T05:17:47.875Z,99915.16
2023-09-01T05:20:14.535Z,99927.25
2023-09-01T05:22:41.121Z,99925.06
2023-09-01T05:25:08.251Z,99922.66
2023-09-01T05:27:35.118Z,99927.09
2023-09-01T05:30:01.609Z,99930.28
2023-09-01T05:32:28.148Z,99927.81
2023-09-01T05:34:54.720Z,99922.34
2023-09-01T05:37:21.182Z,99922.63
2023-09-01T05:39:47.685Z,99922.06
2023-09-01T05:42:15.886Z,99935.47
2023-09-01T05:44:42.710Z,99937.28
2023-09-01T05:47:09.267Z,99929.94
2023-09-01T05:49:36.155Z,99934.66
2023-09-01T05:52:03.080Z,99937.38
2023-09-01T05:54:29.901Z,99942.72
2023-09-01T05:56:56.645Z,99944.44
2023-09-01T05:59:23.182Z,99951.00
2023-09-01T06:01:49.820Z,99948.47
2023-09-01T06:04:16.424Z,99941.81
2023-09-01T06:06:43.014Z,99953.06
2023-09-01T06:09:09.574Z,99939.56
2023-09-01T06:11:38.160Z,99942.81
2023-09-01T06:14:04.852Z,99930.81
2023-09-01T06:16:31.419Z,99938.22
2023-09-01T06:19:00.821Z,99935.19
2023-09-01T06:21:28.033Z,99941.91
2023-09-01T06:23:55.461Z,99935.03
2023-09-01T06:26:22.140Z,99933.69
2023-09-01T06:28:49.446Z,99930.66
2023-09-01T06:31:17.793Z,99932.28
2023-09-01T06:33:45.757Z,99930.59
2023-09-01T06:36:14.579Z,99928.50
2023-09-01T06:38:42.261Z,99926.47
2023-09-01T06:41:09.877Z,99935.91
2023-09-01T06:43:36.998Z,99936.34
2023-09-01T06:46:04.082Z,99939.22
2023-09-01T06:48:32.457Z,99939.66
2023-09-01T06:51:02.438Z,99935.69
2023-09-01T06:53:29.329Z,99951.00
2023-09-01T06:55:55.877Z,99945.84
2023-09-01T06:58:22.541Z,99949.09
2023-09-01T07:00:52.301Z,99958.00
2023-09-01T07:03:20.564Z,99969.31
2023-09-01T07:05:54.920Z,99961.16
2023-09-01T07:08:21.417Z,99962.56
2023-09-01T07:10:47.878Z,99962.97
2023-09-01T07:13:14.360Z,99963.56
2023-09-01T07:15:40.941Z,99971.63
2023-09-01T07:18:07.530Z,99963.44
2023-09-01T07:20:34.146Z,99977.22
2023-09-01T07:23:00.614Z,99966.38
2023-09-01T07:25:27.183Z,99971.06
2023-09-01T07:27:53.654Z,99960.97
2023-09-01T07:30:20.131Z,99971.09
2023-09-01T07:32:46.714Z,99981.47
2023-09-01T07:35:13.287Z,99978.44
2023-09-01T07:37:39.876Z,99978.16
2023-09-01T07:40:06.864Z,99983.63
2023-09-01T07:42:34.241Z,99976.84
2023-09-01T07:45:00.719Z,99984.44
2023-09-01T07:47:27.650Z,99981.19
2023-09-01T07:49:54.209Z,99965.03
2023-09-01T07:52:20.733Z,99973.47
2023-09-01T07:54:47.232Z,99965.22
2023-09-01T07:57:13.793Z,99968.47
2023-09-01T07:59:41.016Z,99978.56
2023-09-01T08:02:07.624Z,99966.47
2023-09-01T08:04:34.217Z,99971.66
2023-09-01T08:07:00.930Z,99970.00
2023-09-01T08:09:27.954Z,99982.09
2023-09-01T08:11:54.433Z,99981.63
2023-09-01T08:14:20.981Z,99987.94
2023-09-01T08:16:47.715Z,99993.34
2023-09-01T08:19:15.805Z,99988.38
2023-09-01T08:21:42.770Z,99995.72
2023-09-01T08:24:09.402Z,99987.81
2023-09-01T08:26:36.952Z,99996.22
2023-09-01T08:29:05.270Z,99985.25
2023-09-01T08:31:33.472Z,99997.81
2023-09-01T08:34:00.193Z,99996.44
2023-09-01T08:36:27.660Z,99997.19
2023-09-01T08:38:54.155Z,99986.56
2023-09-01T08:41:20.770Z,99986.38
2023-09-01T08:43:49.400Z,99983.66
2023-09-01T08:46:22.353Z,99979.75
2023-09-01T08:48:49.204Z,99983.03
2023-09-01T08:51:16.207Z,99983.84
2023-09-01T08:53:44.152Z,99981.41
2023-09-01T08:56:10.737Z,99987.88
2023-09-01T08:58:37.961Z,99983.41
2023-09-01T09:01:04.926Z,99984.50
2023-09-01T09:03:31.485Z,99980.38
2023-09-01T09:05:58.033Z,99983.66
2023-09-01T09:08:24.582Z,99979.28
2023-09-01T09:10:53.476Z,99984.75
2023-09-01T09:13:31.738Z,99982.28
2023-09-01T09:16:11.910Z,99978.50
2023-09-01T09:18:41.836Z,99985.00
2023-09-01T09:21:24.856Z,99984.09
2023-09-01T09:23:51.697Z,99974.81
2023-09-01T09:26:25.377Z,99976.25
2023-09-01T09:28:52.320Z,99978.16
2023-09-01T09:31:18.893Z,99979.31
2023-09-01T09:33:46.337Z,99974.69
2023-09-01T09:36:12.861Z,99975.38
2023-09-01T09:38:44.484Z,99968.28
2023-09-01T09:41:11.075Z,99972.56
2023-09-01T09:43:48.473Z,99967.91
2023-09-01T09:46:16.043Z,99961.72
2023-09-01T09:48:43.766Z,99967.50
2023-09-01T09:51:11.374Z,99957.94
2023-09-01T09:53:42.016Z,99950.69
2023-09-01T09:56:32.011Z,99967.19
2023-09-01T09:59:04.564Z,99958.97
2023-09-01T10:01:40.974Z,99956.38
2023-09-01T10:04:08.679Z,99958.44
2023-09-01T10:06:36.532Z,99949.28
2023-09-01T10:09:05.437Z,99952.75
2023-09-01T10:11:33.057Z,99953.63
2023-09-01T10:14:00.962Z,99950.31
2023-09-01T10:16:28.846Z,99953.63
2023-09-01T10:18:55.863Z,99954.16
2023-09-01T10:21:22.955Z,99955.78
2023-09-01T10:23:49.779Z,99951.28
2023-09-01T10:26:18.745Z,99946.81
2023-09-01T10:29:01.385Z,99958.22
2023-09-01T10:31:29.200Z,99954.59
2023-09-01T10:34:15.470Z,99959.41
2023-09-01T10:36:46.599Z,99950.09
2023-09-01T10:39:19.967Z,99946.97
2023-09-01T10:42:01.258Z,99953.59
2023-09-01T10:44:45.858Z,99941.72
2023-09-01T10:47:34.759Z,99950.66
2023-09-01T10:50:04.664Z,99948.31
2023-09-01T10:52:32.949Z,99949.06
2023-09-01T10:55:03.936Z,99937.56
2023-09-01T10:57:44.815Z,99935.88
2023-09-01T11:00:30.656Z,99938.28
2023-09-01T11:03:25.221Z,99939.28
2023-09-01T11:05:56.453Z,99948.59
2023-09-01T11:08:23.279Z,99940.00
2023-09-01T11:10:49.768Z,99944.00
2023-09-01T11:13:17.798Z,99934.25
2023-09-01T11:15:48.567Z,99931.00
2023-09-01T11:18:25.282Z,99935.84
2023-09-01T11:20:56.355Z,99938.97
2023-09-01T11:23:24.837Z,99940.97
2023-09-01T11:25:58.729Z,99944.59
2023-09-01T11:28:26.688Z,99933.31
2023-09-01T11:30:57.664Z,99925.22
2023-09-01T11:33:26.138Z,99941.94
2023-09-01T11:36:12.403Z,99942.34
2023-09-01T11:38:40.165Z,99942.16
2023-09-01T11:41:11.846Z,99931.69
2023-09-01T11:43:38.799Z,99933.97
2023-09-01T11:46:05.532Z,99933.84
2023-09-01T11:48:32.329Z,99923.59
2023-09-01T11:50:59.493Z,99931.22
2023-09-01T11:53:33.981Z,99928.91
2023-09-01T11:56:05.128Z,99912.66
2023-09-01T11:58:34.661Z,99920.28
2023-09-01T12:01:11.888Z,99912.31
2023-09-01T12:03:41.515Z,99916.09
2023-09-01T12:06:21.307Z,99919.53
2023-09-01T12:08:49.033Z,99908.91
2023-09-01T12:11:17.321Z,99906.09
2023-09-01T12:13:47.537Z,99905.06
2023-09-01T12:16:21.611Z,99912.03
2023-09-01T12:18:49.702Z,99916.97
2023-09-01T12:21:16.600Z,99906.38
2023-09-01T12:23:45.769Z,99897.56
2023-09-01T12:26:14.498Z,99901.03
2023-09-01T12:28:42.498Z,99905.94
2023-09-01T12:31:10.673Z,99895.78
2023-09-01T12:33:38.108Z,99900.59
2023-09-01T12:36:05.841Z,99904.66
2023-09-01T12:38:32.521Z,99906.44
2023-09-01T12:40:59.055Z,99896.06
2023-09-01T12:43:25.574Z,99896.09
2023-09-01T12:45:52.149Z,99883.50
2023-09-01T12:48:18.851Z,99891.44
2023-09-01T12:50:46.950Z,99887.25
2023-09-01T12:53:14.479Z,99892.13
2023-09-01T12:55:41.494Z,99885.50
2023-09-01T12:58:08.187Z,99886.53
2023-09-01T13:00:34.902Z,99888.63
2023-09-01T13:03:01.514Z,99875.53
2023-09-01T13:05:30.786Z,99877.25
2023-09-01T13:07:57.458Z,99876.97
2023-09-01T13:10:24.046Z,99877.19
2023-09-01T13:12:50.595Z,99869.22
2023-09-01T13:15:17.129Z,99867.91
2023-09-01T13:17:45.591Z,99879.63
2023-09-01T13:20:13.814Z,99865.19
2023-09-01T13:22:41.113Z,99869.84
2023-09-01T13:25:08.158Z,99879.84
2023-09-01T13:27:35.131Z,99876.19
2023-09-01T13:30:01.969Z,99868.44
2023-09-01T13:32:28.576Z,99869.34
2023-09-01T13:34:55.149Z,99870.09
2023-09-01T13:37:23.500Z,99863.59
2023-09-01T13:39:58.892Z,99853.44
2023-09-01T13:42:26.873Z,99850.44
2023-09-01T13:44:57.749Z,99864.97
2023-09-01T13:47:25.854Z,99866.09
2023-09-01T13:49:55.737Z,99859.88
2023-09-01T13:52:23.517Z,99862.50
2023-09-01T13:54:51.474Z,99855.13
2023-09-01T13:57:18.347Z,99856.81
2023-09-01T13:59:44.911Z,99856.50
2023-09-01T14:02:11.568Z,99850.91
2023-09-01T14:04:38.220Z,99864.09
2023-09-01T14:07:05.024Z,99861.03
2023-09-01T14:09:32.309Z,99856.41
2023-09-01T14:11:58.918Z,99867.16
2023-09-01T14:14:25.507Z,99862.88
2023-09-01T14:16:52.060Z,99849.63
2023-09-01T14:19:18.626Z,99848.91
2023-09-01T14:21:45.229Z,99845.03
2023-09-01T14:24:15.659Z,99848.34
2023-09-01T14:26:42.641Z,99859.91
2023-09-01T14:29:09.345Z,99860.59
2023-09-01T14:31:35.960Z,99860.59
2023-09-01T14:34:03.033Z,99856.13
2023-09-01T14:36:29.794Z,99858.28
2023-09-01T14:38:56.652Z,99855.75
2023-09-01T14:41:23.649Z,99861.66
2023-09-01T14:43:50.239Z,99857.78
2023-09-01T14:46:18.834Z,99854.75
2023-09-01T14:48:47.320Z,99854.53
2023-09-01T14:51:15.865Z,99856.16
2023-09-01T14:53:45.552Z,99850.94
2023-09-01T14:56:15.502Z,99847.22
2023-09-01T14:58:42.259Z,99851.28
2023-09-01T15:01:08.907Z,99848.69
2023-09-01T15:03:35.455Z,99838.91
2023-09-01T15:06:02.127Z,99847.56
2023-09-01T15:08:28.672Z,99844.81
2023-09-01T15:10:56.248Z,99841.34
2023-09-01T15:13:23.259Z,99846.84
2023-09-01T15:15:50.389Z,99832.78
2023-09-01T15:18:18.195Z,99829.16
2023-09-01T15:20:44.789Z,99832.78
2023-09-01T15:23:11.417Z,99834.91
2023-09-01T15:25:40.120Z,99829.31
2023-09-01T15:28:06.976Z,99828.72
2023-09-01T15:30:34.005Z,99828.94
2023-09-01T15:33:01.256Z,99833.13
2023-09-01T15:35:32.291Z,99825.06
2023-09-01T15:38:01.515Z,99830.97
2023-09-01T15:40:28.302Z,99829.75
2023-09-01T15:42:56.538Z,99834.59
2023-09-01T15:45:24.081Z,99832.44
2023-09-01T15:47:51.501Z,99828.88
2023-09-01T15:50:24.878Z,99820.69
2023-09-01T15:52:57.889Z,99828.09
2023-09-01T15:55:24.416Z,99828.31
2023-09-01T15:57:52.712Z,99829.22
2023-09-01T16:00:19.759Z,99827.28
2023-09-01T16:02:46.443Z,99818.31
2023-09-01T16:05:13.924Z,99821.38
2023-09-01T16:07:40.470Z,99821.06
2023-09-01T16:10:07.398Z,99824.75
2023-09-01T16:12:33.929Z,99825.22
2023-09-01T16:15:00.405Z,99827.50
2023-09-01T16:17:27.004Z,99825.47
2023-09-01T16:19:53.540Z,99830.97
2023-09-01T16:22:20.173Z,99823.81
2023-09-01T16:24:46.680Z,99825.66
2023-09-01T16:27:13.284Z,99827.00
2023-09-01T16:29:44.811Z,99827.66
2023-09-01T16:32:11.413Z,99821.56
2023-09-01T16:34:38.072Z,99819.16
2023-09-01T16:37:04.593Z,99815.31
2023-09-01T16:39:31.804Z,99816.75
2023-09-01T16:42:00.625Z,99816.22
2023-09-01T16:44:27.302Z,99819.66
2023-09-01T16:46:53.872Z,99819.16
2023-09-01T16:49:20.699Z,99822.03
2023-09-01T16:51:47.218Z,99823.34
2023-09-01T16:54:13.805Z,99827.22
2023-09-01T16:56:40.252Z,99822.94
2023-09-01T16:59:06.757Z,99826.50
2023-09-01T17:01:33.298Z,99822.22
2023-09-01T17:03:59.779Z,99822.31
2023-09-01T17:06:26.290Z,99823.34
2023-09-01T17:08:57.070Z,99829.31
2023-09-01T17:11:23.656Z,99823.47
2023-09-01T17:13:50.388Z,99827.00
2023-09-01T17:16:18.032Z,99834.41
2023-09-01T17:18:44.867Z,99835.88
2023-09-01T17:21:14.328Z,99835.16
2023-09-01T17:23:40.907Z,99834.44
2023-09-01T17:26:07.441Z,99834.50
2023-09-01T17:28:34.050Z,99842.50
2023-09-01T17:31:00.638Z,99838.72
2023-09-01T17:33:27.270Z,99837.53
2023-09-01T17:35:53.755Z,99846.66
2023-09-01T17:38:20.298Z,99854.38
2023-09-01T17:40:47.965Z,99856.19
2023-09-01T17:43:15.048Z,99857.38
2023-09-01T17:45:41.790Z,99856.63
2023-09-01T17:48:08.601Z,99852.19
2023-09-01T17:50:35.406Z,99859.72
2023-09-01T17:53:02.145Z,99860.03
2023-09-01T17:55:28.860Z,99866.97
2023-09-01T17:57:55.382Z,99862.97
2023-09-01T18:00:21.960Z,99871.06
2023-09-01T18:02:49.699Z,99875.38
2023-09-01T18:05:16.483Z,99873.13
2023-09-01T18:07:43.042Z,99876.38
2023-09-01T18:10:10.826Z,99881.56
2023-09-01T18:12:38.021Z,99886.69
2023-09-01T18:15:04.918Z,99886.94
2023-09-01T18:17:31.794Z,99884.25
2023-09-01T18:20:02.148Z,99895.78
2023-09-01T18:22:29.838Z,99887.84
2023-09-01T18:24:57.022Z,99895.00
2023-09-01T18:27:28.034Z,99902.41
2023-09-01T18:29:57.177Z,99898.38
2023-09-01T18:32:28.157Z,99905.19
2023-09-01T18:34:55.467Z,99901.88
2023-09-01T18:37:22.208Z,99900.25
2023-09-01T18:39:50.368Z,99902.50
2023-09-01T18:42:32.040Z,99900.31
2023-09-01T18:45:01.981Z,99902.25
2023-09-01T18:47:29.127Z,99898.63
2023-09-01T18:49:56.001Z,99909.31
2023-09-01T18:52:22.693Z,99905.97
2023-09-01T18:54:49.365Z,99906.22
2023-09-01T18:57:16.400Z,99906.94
2023-09-01T18:59:43.417Z,99918.34
2023-09-01T19:02:37.087Z,99907.06
2023-09-01T19:05:17.484Z,99914.69
2023-09-01T19:07:45.282Z,99925.28
2023-09-01T19:10:23.221Z,99914.91
2023-09-01T19:12:52.211Z,99911.06
2023-09-01T19:15:20.767Z,99911.88
2023-09-01T19:17:48.554Z,99928.22
2023-09-01T19:20:44.652Z,99915.13
2023-09-01T19:23:21.387Z,99925.56
2023-09-01T19:25:47.894Z,99918.28
2023-09-01T19:28:31.482Z,99915.09
2023-09-01T19:31:06.482Z,99916.22
2023-09-01T19:33:33.798Z,99923.00
2023-09-01T19:36:00.888Z,99926.25
2023-09-01T19:38:30.786Z,99920.75
2023-09-01T19:40:59.596Z,99922.69
2023-09-01T19:43:26.398Z,99923.22
2023-09-01T19:45:54.474Z,99916.97
2023-09-01T19:48:22.091Z,99912.94
2023-09-01T19:50:49.167Z,99917.81
2023-09-01T19:53:29.236Z,99909.88
2023-09-01T19:55:59.524Z,99915.63
2023-09-01T19:58:28.235Z,99917.50
2023-09-01T20:00:55.599Z,99915.66
2023-09-01T20:03:23.945Z,99917.28
2023-09-01T20:05:51.709Z,99914.28
2023-09-01T20:08:19.522Z,99913.44
2023-09-01T20:10:49.325Z,99914.56
2023-09-01T20:13:16.499Z,99913.72
2023-09-01T20:15:47.784Z,99921.13
2023-09-01T20:18:19.473Z,99937.19
2023-09-01T20:20:47.586Z,99937.47
2023-09-01T20:23:14.451Z,99936.91
2023-09-01T20:25:43.454Z,99941.03
2023-09-01T20:28:11.316Z,99939.66
2023-09-01T20:30:37.899Z,99940.22
2023-09-01T20:33:04.889Z,99946.78
2023-09-01T20:35:31.358Z,99937.22
2023-09-01T20:37:58.045Z,99942.69
2023-09-01T20:40:24.865Z,99940.78
2023-09-01T20:42:53.449Z,99932.03
2023-09-01T20:45:20.064Z,99943.78
2023-09-01T20:47:46.818Z,99946.25
2023-09-01T20:50:13.346Z,99945.97
2023-09-01T20:52:40.508Z,99939.94
2023-09-01T20:55:09.004Z,99954.94
2023-09-01T20:57:40.046Z,99944.88
2023-09-01T21:00:11.073Z,99939.16
2023-09-01T21:02:39.014Z,99946.81
2023-09-01T21:05:06.437Z,99939.69
2023-09-01T21:07:33.414Z,99946.81
2023-09-01T21:09:59.982Z,99951.66
2023-09-01T21:12:28.148Z,99943.78
2023-09-01T21:14:55.070Z,99947.84
2023-09-01T21:17:21.593Z,99951.41
2023-09-01T21:19:48.076Z,99955.53
2023-09-01T21:22:14.553Z,99951.16
2023-09-01T21:24:41.063Z,99956.06
2023-09-01T21:27:10.522Z,99954.94
2023-09-01T21:29:40.799Z,99950.56
2023-09-01T21:32:07.411Z,99953.88
2023-09-01T21:34:34.300Z,99959.31
2023-09-01T21:37:02.230Z,99962.06
2023-09-01T21:39:29.302Z,99958.78
2023-09-01T21:41:55.798Z,99957.13
2023-09-01T21:44:22.428Z,99950.59
2023-09-01T21:46:48.986Z,99950.59
2023-09-01T21:49:17.838Z,99943.50
2023-09-01T21:51:45.366Z,99951.69
2023-09-01T21:54:11.842Z,99947.34
2023-09-01T21:56:38.290Z,99953.34
2023-09-01T21:59:04.845Z,99963.16
2023-09-01T22:01:32.924Z,99955.53
2023-09-01T22:04:01.159Z,99967.25
2023-09-01T22:06:27.972Z,99959.06
2023-09-01T22:08:54.504Z,99964.00
2023-09-01T22:11:21.025Z,99959.63
2023-09-01T22:13:48.252Z,99977.34
2023-09-01T22:16:15.026Z,99971.88
2023-09-01T22:18:41.655Z,99971.31
2023-09-01T22:21:08.953Z,99972.44
2023-09-01T22:23:35.564Z,99972.44
2023-09-01T22:26:02.329Z,99970.78
2023-09-01T22:28:29.726Z,99970.53
2023-09-01T22:30:56.622Z,99973.78
2023-09-01T22:33:23.330Z,99971.59
2023-09-01T22:35:49.919Z,99974.31
2023-09-01T22:38:19.278Z,99983.56
2023-09-01T22:40:46.105Z,99978.41
2023-09-01T22:43:19.765Z,99982.75
2023-09-01T22:45:46.962Z,99990.38
2023-09-01T22:48:13.652Z,99981.13
2023-09-01T22:50:40.133Z,99980.53
2023-09-01T22:53:06.691Z,99976.19
2023-09-01T22:55:33.994Z,99977.09
2023-09-01T22:58:00.602Z,99980.41
2023-09-01T23:00:27.407Z,99980.44
2023-09-01T23:02:54.051Z,99976.06
2023-09-01T23:05:20.613Z,99978.25
2023-09-01T23:07:47.180Z,99980.16
2023-09-01T23:10:13.912Z,99984.22
2023-09-01T23:12:40.419Z,99973.31
2023-09-01T23:15:07.442Z,99972.78
2023-09-01T23:17:34.087Z,99976.88
2023-09-01T23:20:00.598Z,99972.53
2023-09-01T23:22:27.749Z,99977.72
2023-09-01T23:24:54.437Z,99971.94
2023-09-01T23:27:21.026Z,99978.19
2023-09-01T23:29:47.573Z,99991.34
2023-09-01T23:32:14.331Z,99999.41
2023-09-01T23:34:40.945Z,99990.25
2023-09-01T23:37:09.652Z,99984.56
2023-09-01T23:39:36.135Z,99989.59
2023-09-01T23:42:03.550Z,99987.22
2023-09-01T23:44:30.066Z,99984.03
2023-09-01T23:46:56.646Z,99978.66
2023-09-01T23:49:24.169Z,99971.34
2023-09-01T23:51:50.796Z,99978.38
2023-09-01T23:54:17.254Z,99982.50
2023-09-01T23:56:44.367Z,99979.59
2023-09-01T23:59:11.313Z,99978.03
